createdAt,value
2024-01-18T00:00:55.152Z,24.20
2024-01-18T00:03:25.920Z,22.60
2024-01-18T00:05:56.762Z,25.90
2024-01-18T00:08:27.365Z,22.50
2024-01-18T00:10:57.881Z,24.80
2024-01-18T00:13:28.409Z,26.10
2024-01-18T00:15:58.955Z,24.70
2024-01-18T00:18:29.941Z,23.90
2024-01-18T00:21:00.863Z,23.20
2024-01-18T00:23:31.477Z,24.50
2024-01-18T00:26:02.123Z,23.90
2024-01-18T00:28:32.736Z,24.30
2024-01-18T00:31:03.338Z,24.00
2024-01-18T00:33:33.997Z,24.50
2024-01-18T00:36:04.907Z,25.00
2024-01-18T00:38:35.592Z,24.00
2024-01-18T00:41:06.604Z,25.60
2024-01-18T00:43:37.171Z,24.40
2024-01-18T00:46:08.061Z,21.80
2024-01-18T00:48:38.711Z,24.40
2024-01-18T00:51:09.644Z,25.40
2024-01-18T00:53:40.831Z,24.10
2024-01-18T00:56:12.725Z,28.20
2024-01-18T00:58:43.551Z,24.40
2024-01-18T01:01:14.082Z,23.60
2024-01-18T01:03:44.705Z,27.00
2024-01-18T01:06:15.686Z,21.50
2024-01-18T01:08:46.298Z,21.70
2024-01-18T01:11:16.821Z,22.80
2024-01-18T01:13:47.506Z,20.50
2024-01-18T01:16:18.060Z,21.90
2024-01-18T01:18:48.682Z,20.70
2024-01-18T01:21:19.329Z,21.50
2024-01-18T01:23:52.752Z,21.30
2024-01-18T01:26:23.283Z,18.00
2024-01-18T01:28:53.777Z,15.90
2024-01-18T01:31:24.384Z,18.00
2024-01-18T01:33:54.996Z,17.20
2024-01-18T01:36:25.853Z,19.30
2024-01-18T01:38:56.452Z,18.90
2024-01-18T01:41:26.981Z,18.60
2024-01-18T01:44:02.094Z,20.80
2024-01-18T01:46:33.566Z,18.60
2024-01-18T01:49:07.593Z,18.50
2024-01-18T01:51:43.789Z,17.90
2024-01-18T01:54:14.368Z,21.90
2024-01-18T01:56:47.488Z,21.00
2024-01-18T01:59:18.909Z,21.60
2024-01-18T02:01:50.594Z,20.70
2024-01-18T02:04:21.573Z,21.40
2024-01-18T02:06:54.110Z,21.50
2024-01-18T02:09:25.275Z,20.20
2024-01-18T02:11:56.051Z,20.30
2024-01-18T02:14:26.892Z,19.70
2024-01-18T02:16:58.287Z,20.00
2024-01-18T02:19:28.919Z,19.10
2024-01-18T02:21:59.882Z,21.60
2024-01-18T02:24:34.911Z,20.40
2024-01-18T02:27:05.960Z,18.30
2024-01-18T02:29:36.673Z,20.30
2024-01-18T02:32:07.917Z,21.50
2024-01-18T02:34:41.383Z,21.90
2024-01-18T02:37:12.597Z,19.20
2024-01-18T02:39:43.378Z,20.10
2024-01-18T02:42:14.035Z,18.40
2024-01-18T02:44:46.636Z,18.30
2024-01-18T02:47:17.408Z,18.50
2024-01-18T02:49:47.938Z,17.50
2024-01-18T02:52:19.556Z,18.60
2024-01-18T02:54:50.107Z,21.20
2024-01-18T02:57:20.687Z,17.10
2024-01-18T02:59:51.316Z,19.50
2024-01-18T03:02:21.813Z,15.70
2024-01-18T03:04:52.282Z,18.60
2024-01-18T03:07:22.754Z,19.40
2024-01-18T03:09:53.257Z,16.70
2024-01-18T03:12:23.893Z,17.90
2024-01-18T03:14:54.393Z,20.30
2024-01-18T03:17:24.910Z,15.50
2024-01-18T03:19:55.471Z,16.80
2024-01-18T03:22:25.987Z,16.10
2024-01-18T03:24:56.442Z,17.70
2024-01-18T03:27:27.030Z,18.90
2024-01-18T03:29:57.575Z,19.30
2024-01-18T03:32:28.179Z,19.60
2024-01-18T03:34:58.628Z,21.30
2024-01-18T03:37:29.089Z,19.90
2024-01-18T03:40:00.031Z,19.50
2024-01-18T03:42:30.627Z,18.70
2024-01-18T03:45:01.179Z,17.60
2024-01-18T03:47:31.704Z,20.10
2024-01-18T03:50:02.969Z,21.20
2024-01-18T03:52:33.956Z,20.10
2024-01-18T03:55:06.587Z,20.10
2024-01-18T03:57:37.364Z,21.40
2024-01-18T04:00:10.994Z,22.90
2024-01-18T04:02:43.086Z,20.70
2024-01-18T04:05:13.784Z,20.80
2024-01-18T04:07:44.503Z,22.30
2024-01-18T04:10:15.136Z,19.40
2024-01-18T04:12:46.826Z,17.30
2024-01-18T04:15:17.514Z,20.80
2024-01-18T04:17:48.479Z,20.80
2024-01-18T04:20:23.147Z,22.90
2024-01-18T04:22:53.845Z,20.50
2024-01-18T04:25:24.396Z,21.10
2024-01-18T04:27:54.975Z,26.80
2024-01-18T04:30:26.390Z,20.40
2024-01-18T04:32:57.172Z,22.90
2024-01-18T04:35:27.822Z,21.70
2024-01-18T04:37:58.294Z,20.80
2024-01-18T04:40:28.907Z,21.50
2024-01-18T04:42:59.927Z,23.60
2024-01-18T04:45:30.520Z,23.90
2024-01-18T04:48:01.405Z,24.40
2024-01-18T04:50:32.184Z,22.30
2024-01-18T04:53:03.166Z,25.00
2024-01-18T04:55:33.655Z,24.00
2024-01-18T04:58:04.318Z,22.80
2024-01-18T05:00:34.946Z,22.50
2024-01-18T05:03:06.039Z,23.10
2024-01-18T05:05:38.110Z,20.00
2024-01-18T05:08:09.751Z,20.10
2024-01-18T05:10:40.325Z,20.00
2024-01-18T05:13:10.822Z,21.40
2024-01-18T05:15:41.576Z,18.00
2024-01-18T05:18:12.579Z,20.60
2024-01-18T05:20:43.252Z,20.00
2024-01-18T05:23:13.712Z,21.10
2024-01-18T05:25:45.000Z,23.70
2024-01-18T05:28:15.477Z,20.70
2024-01-18T05:30:46.389Z,20.70
2024-01-18T05:33:17.015Z,19.70
2024-01-18T05:35:47.616Z,23.50
2024-01-18T05:38:18.094Z,20.40
2024-01-18T05:40:48.600Z,22.50
2024-01-18T05:43:19.452Z,23.10
2024-01-18T05:45:50.040Z,25.30
2024-01-18T05:48:20.669Z,24.70
2024-01-18T05:50:51.251Z,23.90
2024-01-18T05:53:21.772Z,27.30
2024-01-18T05:55:52.279Z,25.00
2024-01-18T05:58:23.377Z,27.40
2024-01-18T06:00:53.962Z,26.90
2024-01-18T06:03:24.585Z,28.60
2024-01-18T06:05:55.245Z,26.30
2024-01-18T06:08:25.758Z,30.00
2024-01-18T06:10:56.324Z,28.80
2024-01-18T06:13:26.826Z,29.60
2024-01-18T06:15:57.347Z,28.90
2024-01-18T06:18:28.079Z,30.10
2024-01-18T06:20:58.746Z,30.90
2024-01-18T06:23:29.285Z,30.40
2024-01-18T06:26:00.000Z,31.00
2024-01-18T06:28:30.500Z,29.70
2024-01-18T06:31:01.068Z,32.20
2024-01-18T06:33:31.669Z,30.00
2024-01-18T06:36:02.368Z,28.60
2024-01-18T06:38:33.035Z,30.20
2024-01-18T06:41:04.178Z,30.70
2024-01-18T06:43:34.627Z,29.90
2024-01-18T06:46:06.451Z,34.90
2024-01-18T06:48:36.992Z,27.70
2024-01-18T06:51:07.891Z,29.40
2024-01-18T06:53:38.351Z,31.30
2024-01-18T06:56:15.103Z,31.00
2024-01-18T06:58:46.198Z,30.50
2024-01-18T07:01:16.824Z,30.50
2024-01-18T07:03:47.567Z,29.00
2024-01-18T07:06:18.190Z,31.70
2024-01-18T07:08:49.811Z,31.90
2024-01-18T07:11:20.304Z,32.60
2024-01-18T07:13:50.843Z,33.90
2024-01-18T07:16:21.344Z,34.00
2024-01-18T07:18:51.939Z,40.90
2024-01-18T07:21:22.475Z,35.90
2024-01-18T07:23:52.976Z,36.00
2024-01-18T07:26:23.898Z,39.00
2024-01-18T07:28:54.388Z,36.70
2024-01-18T07:31:24.868Z,37.10
2024-01-18T07:33:55.473Z,33.50
2024-01-18T07:36:26.029Z,38.00
2024-01-18T07:38:56.598Z,36.80
2024-01-18T07:41:28.126Z,34.30
2024-01-18T07:44:02.254Z,36.50
2024-01-18T07:46:32.751Z,37.90
2024-01-18T07:49:04.866Z,39.80
2024-01-18T07:51:35.454Z,36.90
2024-01-18T07:54:06.314Z,38.00
2024-01-18T07:56:37.314Z,36.30
2024-01-18T07:59:07.864Z,39.60
2024-01-18T08:01:40.336Z,36.70
2024-01-18T08:04:11.267Z,35.70
2024-01-18T08:06:43.985Z,35.20
2024-01-18T08:09:15.001Z,34.30
2024-01-18T08:11:45.511Z,35.70
2024-01-18T08:14:18.260Z,42.90
2024-01-18T08:16:49.049Z,33.40
2024-01-18T08:19:20.386Z,35.50
2024-01-18T08:21:50.945Z,39.30
2024-01-18T08:24:21.474Z,36.60
2024-01-18T08:26:51.945Z,42.20
2024-01-18T08:29:22.426Z,36.20
2024-01-18T08:31:53.027Z,41.80
2024-01-18T08:34:23.827Z,33.50
2024-01-18T08:36:54.407Z,34.10
2024-01-18T08:39:25.030Z,32.90
2024-01-18T08:41:57.742Z,35.20
2024-01-18T08:44:30.152Z,36.80
2024-01-18T08:47:00.769Z,42.10
2024-01-18T08:49:31.500Z,34.10
2024-01-18T08:52:02.239Z,31.30
2024-01-18T08:54:33.014Z,33.70
2024-01-18T08:57:03.662Z,36.20
2024-01-18T08:59:35.134Z,30.60
2024-01-18T09:02:13.984Z,29.10
2024-01-18T09:04:49.078Z,32.60
2024-01-18T09:07:19.959Z,27.60
2024-01-18T09:09:50.693Z,30.50
2024-01-18T09:12:21.269Z,33.50
2024-01-18T09:14:51.807Z,30.80
2024-01-18T09:17:22.342Z,31.90
2024-01-18T09:19:53.932Z,37.00
2024-01-18T09:22:24.583Z,31.20
2024-01-18T09:24:57.172Z,37.60
2024-01-18T09:27:28.697Z,33.70
2024-01-18T09:29:59.182Z,41.50
2024-01-18T09:32:29.651Z,42.50
2024-01-18T09:35:00.229Z,35.00
2024-01-18T09:37:30.886Z,33.60
2024-01-18T09:40:01.335Z,33.70
2024-01-18T09:42:34.889Z,32.50
2024-01-18T09:45:11.191Z,35.30
2024-01-18T09:47:42.684Z,33.70
2024-01-18T09:50:16.716Z,35.00
2024-01-18T09:52:47.232Z,36.30
2024-01-18T09:55:18.357Z,31.70
2024-01-18T09:57:54.611Z,34.10
2024-01-18T10:00:29.311Z,38.90
2024-01-18T10:02:59.864Z,31.40
2024-01-18T10:05:30.458Z,30.60
2024-01-18T10:08:01.335Z,34.80
2024-01-18T10:10:31.900Z,34.10
2024-01-18T10:13:05.084Z,29.00
2024-01-18T10:15:37.131Z,30.50
2024-01-18T10:18:08.665Z,31.40
2024-01-18T10:20:39.713Z,32.30
2024-01-18T10:23:11.576Z,34.50
2024-01-18T10:25:45.959Z,32.80
2024-01-18T10:28:16.591Z,30.20
2024-01-18T10:30:53.949Z,32.50
2024-01-18T10:33:24.534Z,32.40
2024-01-18T10:35:55.095Z,30.80
2024-01-18T10:38:31.150Z,30.30
2024-01-18T10:41:02.717Z,32.00
2024-01-18T10:43:34.459Z,31.90
2024-01-18T10:46:06.886Z,32.60
2024-01-18T10:48:38.125Z,36.50
2024-01-18T10:51:09.439Z,32.00
2024-01-18T10:53:41.975Z,34.30
2024-01-18T10:58:44.414Z,36.00
2024-01-18T11:01:15.033Z,33.50
2024-01-18T11:03:47.848Z,34.90
2024-01-18T11:06:19.757Z,32.00
2024-01-18T11:08:51.483Z,32.80
2024-01-18T11:11:22.794Z,38.00
2024-01-18T11:13:53.997Z,37.70
2024-01-18T11:16:24.665Z,32.90
2024-01-18T11:18:59.308Z,38.60
2024-01-18T11:21:42.047Z,37.40
2024-01-18T11:24:14.219Z,33.40
2024-01-18T11:26:44.750Z,40.60
2024-01-18T11:29:25.941Z,39.60
2024-01-18T11:31:56.651Z,37.00
2024-01-18T11:34:33.563Z,38.90
2024-01-18T11:37:14.727Z,34.20
2024-01-18T11:39:59.325Z,37.30
2024-01-18T11:42:31.473Z,39.90
2024-01-18T11:45:04.381Z,33.60
2024-01-18T11:47:36.295Z,34.50
2024-01-18T11:50:09.349Z,35.40
2024-01-18T11:52:41.194Z,38.40
2024-01-18T11:55:15.318Z,37.10
2024-01-18T11:57:46.132Z,35.90
2024-01-18T12:00:17.914Z,41.20
2024-01-18T12:02:48.901Z,37.10
2024-01-18T12:05:19.945Z,39.50
2024-01-18T12:07:51.831Z,33.50
2024-01-18T12:10:23.074Z,37.20
2024-01-18T12:12:55.650Z,36.30
2024-01-18T12:15:26.295Z,33.60
2024-01-18T12:17:58.239Z,36.30
2024-01-18T12:20:28.930Z,33.40
2024-01-18T12:23:02.169Z,33.60
2024-01-18T12:25:34.641Z,35.90
2024-01-18T12:28:06.235Z,35.30
2024-01-18T12:30:36.968Z,35.40
2024-01-18T12:33:08.721Z,35.80
2024-01-18T12:35:41.190Z,31.20
2024-01-18T12:38:11.678Z,36.60
2024-01-18T12:40:42.151Z,33.90
2024-01-18T12:43:12.984Z,35.10
2024-01-18T12:45:44.252Z,33.80
2024-01-18T12:48:15.041Z,34.80
2024-01-18T12:50:45.706Z,33.50
2024-01-18T12:53:16.385Z,32.10
2024-01-18T12:55:47.213Z,37.10
2024-01-18T12:58:18.846Z,33.30
2024-01-18T13:00:54.116Z,31.40
2024-01-18T13:03:25.163Z,29.60
2024-01-18T13:05:58.776Z,31.10
2024-01-18T13:08:29.287Z,31.50
2024-01-18T13:11:00.171Z,34.20
2024-01-18T13:13:32.103Z,33.50
2024-01-18T13:16:03.486Z,30.10
2024-01-18T13:18:34.225Z,38.90
2024-01-18T13:21:06.583Z,35.90
2024-01-18T13:23:37.439Z,37.90
2024-01-18T13:26:08.971Z,37.00
2024-01-18T13:28:39.823Z,38.40
2024-01-18T13:31:10.994Z,39.10
2024-01-18T13:33:42.105Z,40.90
2024-01-18T13:36:13.196Z,36.40
2024-01-18T13:38:44.066Z,39.30
2024-01-18T13:41:14.549Z,38.90
2024-01-18T13:43:46.877Z,35.20
2024-01-18T13:46:18.518Z,35.90
2024-01-18T13:48:49.074Z,36.90
2024-01-18T13:51:19.664Z,36.40
2024-01-18T13:53:51.802Z,36.60
2024-01-18T13:56:23.838Z,34.70
2024-01-18T13:58:54.504Z,36.10
2024-01-18T14:01:25.150Z,33.20
2024-01-18T14:03:56.002Z,39.50
2024-01-18T14:06:26.934Z,38.70
2024-01-18T14:08:58.790Z,37.50
2024-01-18T14:11:29.607Z,36.10
2024-01-18T14:14:00.092Z,36.70
2024-01-18T14:16:30.822Z,33.80
2024-01-18T14:19:01.386Z,28.30
2024-01-18T14:21:32.068Z,25.90
2024-01-18T14:24:02.794Z,23.60
2024-01-18T14:26:33.545Z,25.90
2024-01-18T14:29:11.830Z,25.50
2024-01-18T14:31:42.471Z,24.80
2024-01-18T14:34:13.039Z,29.90
2024-01-18T14:36:43.715Z,28.90
2024-01-18T14:39:16.591Z,30.00
2024-01-18T14:41:47.254Z,29.30
2024-01-18T14:44:17.729Z,27.80
2024-01-18T14:46:48.252Z,26.40
2024-01-18T14:49:22.288Z,23.00
2024-01-18T14:51:52.963Z,30.80
2024-01-18T14:54:23.576Z,24.90
2024-01-18T14:56:54.238Z,23.80
2024-01-18T14:59:24.960Z,22.80
2024-01-18T15:01:55.572Z,22.20
2024-01-18T15:04:26.265Z,24.60
2024-01-18T15:06:56.983Z,21.90
2024-01-18T15:09:27.596Z,20.50
2024-01-18T15:11:58.165Z,22.20
2024-01-18T15:14:28.714Z,22.10
2024-01-18T15:16:59.521Z,23.10
2024-01-18T15:19:30.068Z,23.80
2024-01-18T15:22:01.061Z,21.80
2024-01-18T15:24:31.938Z,22.10
2024-01-18T15:27:02.461Z,21.10
2024-01-18T15:29:33.014Z,22.30
2024-01-18T15:32:04.536Z,19.90
2024-01-18T15:34:35.991Z,19.00
2024-01-18T15:37:07.144Z,21.10
2024-01-18T15:39:37.722Z,22.30
2024-01-18T15:42:08.579Z,18.30
2024-01-18T15:44:39.066Z,23.10
2024-01-18T15:47:15.099Z,23.70
2024-01-18T15:49:46.013Z,22.90
2024-01-18T15:52:16.637Z,23.50
2024-01-18T15:54:47.329Z,23.80
2024-01-18T15:57:18.141Z,24.70
2024-01-18T15:59:49.315Z,31.80
2024-01-18T16:02:19.975Z,30.90
2024-01-18T16:04:51.448Z,23.50
2024-01-18T16:07:22.115Z,22.00
2024-01-18T16:09:52.739Z,20.90
2024-01-18T16:12:23.322Z,20.60
2024-01-18T16:14:53.917Z,19.70
2024-01-18T16:17:24.493Z,20.00
2024-01-18T16:19:55.153Z,21.10
2024-01-18T16:22:25.653Z,21.90
2024-01-18T16:24:56.302Z,22.80
2024-01-18T16:27:26.965Z,22.50
2024-01-18T16:30:03.190Z,23.70
2024-01-18T16:32:37.427Z,23.20
2024-01-18T16:35:11.368Z,22.20
2024-01-18T16:37:42.066Z,25.30
2024-01-18T16:40:13.639Z,24.00
2024-01-18T16:42:44.217Z,24.90
2024-01-18T16:45:15.553Z,22.00
2024-01-18T16:47:46.109Z,22.30
2024-01-18T16:50:16.848Z,23.50
2024-01-18T16:52:47.409Z,25.40
2024-01-18T16:55:18.091Z,25.70
2024-01-18T17:00:24.757Z,23.60
2024-01-18T17:02:55.302Z,24.20
2024-01-18T17:05:26.256Z,24.00
2024-01-18T17:07:57.187Z,23.80
2024-01-18T17:10:27.753Z,24.80
2024-01-18T17:12:58.303Z,24.00
2024-01-18T17:15:28.831Z,22.70
2024-01-18T17:17:59.942Z,43.90
2024-01-18T17:20:30.854Z,26.40
2024-01-18T17:23:01.498Z,26.70
2024-01-18T17:25:32.062Z,23.60
2024-01-18T17:28:02.538Z,28.90
2024-01-18T17:30:33.031Z,28.20
2024-01-18T17:33:04.019Z,24.20
2024-01-18T17:35:36.096Z,25.40
2024-01-18T17:38:07.810Z,23.90
2024-01-18T17:40:38.521Z,24.40
2024-01-18T17:43:09.122Z,22.00
2024-01-18T17:45:39.599Z,23.20
2024-01-18T17:48:10.942Z,24.10
2024-01-18T17:50:44.279Z,23.10
2024-01-18T17:53:15.278Z,21.60
2024-01-18T17:55:47.234Z,24.70
2024-01-18T17:58:17.781Z,20.40
2024-01-18T18:00:48.477Z,24.20
2024-01-18T18:03:19.088Z,25.00
2024-01-18T18:05:49.718Z,25.10
2024-01-18T18:08:20.505Z,24.70
2024-01-18T18:10:51.988Z,25.80
2024-01-18T18:13:23.974Z,25.90
2024-01-18T18:15:55.331Z,26.30
2024-01-18T18:18:26.495Z,28.20
2024-01-18T18:20:57.435Z,25.60
2024-01-18T18:23:28.015Z,29.70
2024-01-18T18:26:02.322Z,28.50
2024-01-18T18:28:35.184Z,29.40
2024-01-18T18:31:06.101Z,30.00
2024-01-18T18:33:36.784Z,27.50
2024-01-18T18:36:08.237Z,26.10
2024-01-18T18:38:39.843Z,26.20
2024-01-18T18:41:11.088Z,26.60
2024-01-18T18:43:43.823Z,26.90
2024-01-18T18:46:14.680Z,27.80
2024-01-18T18:48:46.594Z,29.00
2024-01-18T18:51:17.226Z,27.70
2024-01-18T18:53:47.838Z,24.20
2024-01-18T18:56:18.386Z,26.20
2024-01-18T18:58:48.978Z,28.80
2024-01-18T19:01:19.650Z,26.30
2024-01-18T19:03:50.194Z,24.10
2024-01-18T19:06:20.812Z,25.70
2024-01-18T19:08:52.820Z,30.60
2024-01-18T19:11:23.824Z,33.00
2024-01-18T19:13:54.695Z,28.90
2024-01-18T19:16:25.380Z,30.00
2024-01-18T19:18:55.945Z,33.60
2024-01-18T19:21:26.618Z,34.70
2024-01-18T19:23:57.194Z,29.10
2024-01-18T19:26:27.693Z,32.60
2024-01-18T19:28:58.276Z,32.60
2024-01-18T19:31:28.749Z,30.50
2024-01-18T19:33:59.261Z,31.40
2024-01-18T19:36:29.801Z,36.40
2024-01-18T19:39:00.698Z,30.70
2024-01-18T19:41:31.310Z,28.80
2024-01-18T19:44:01.916Z,27.90
2024-01-18T19:46:32.419Z,26.60
2024-01-18T19:49:03.368Z,24.80
2024-01-18T19:51:34.234Z,26.20
2024-01-18T19:54:05.147Z,28.00
2024-01-18T19:56:35.793Z,29.00
2024-01-18T19:59:08.245Z,27.30
2024-01-18T20:01:38.781Z,29.20
2024-01-18T20:04:09.260Z,29.50
2024-01-18T20:06:39.896Z,32.10
2024-01-18T20:09:11.327Z,34.80
2024-01-18T20:11:41.942Z,23.70
2024-01-18T20:14:12.490Z,25.90
2024-01-18T20:16:43.100Z,26.30
2024-01-18T20:19:13.692Z,27.80
2024-01-18T20:21:44.217Z,30.20
2024-01-18T20:24:15.040Z,31.70
2024-01-18T20:26:45.727Z,33.00
2024-01-18T20:29:17.116Z,31.10
2024-01-18T20:31:47.708Z,27.20
2024-01-18T20:34:18.633Z,41.40
2024-01-18T20:36:50.972Z,30.40
2024-01-18T20:39:21.527Z,26.60
2024-01-18T20:41:52.104Z,30.40
2024-01-18T20:44:22.665Z,28.10
2024-01-18T20:46:53.256Z,29.50
2024-01-18T20:49:24.650Z,24.50
2024-01-18T20:51:55.186Z,33.90
2024-01-18T20:54:25.679Z,26.80
2024-01-18T20:56:56.310Z,30.40
2024-01-18T20:59:26.908Z,28.60
2024-01-18T21:01:57.514Z,27.90
2024-01-18T21:04:28.237Z,26.80
2024-01-18T21:06:58.846Z,23.70
2024-01-18T21:09:29.568Z,28.50
2024-01-18T21:12:00.058Z,27.70
2024-01-18T21:14:32.428Z,25.60
2024-01-18T21:17:03.368Z,26.00
2024-01-18T21:19:34.101Z,26.80
2024-01-18T21:22:04.742Z,22.00
2024-01-18T21:24:35.220Z,24.20
2024-01-18T21:27:05.988Z,30.70
2024-01-18T21:29:36.551Z,27.90
2024-01-18T21:32:07.677Z,29.60
2024-01-18T21:34:38.298Z,29.60
2024-01-18T21:37:09.857Z,32.30
2024-01-18T21:39:40.314Z,42.60
2024-01-18T21:42:10.911Z,31.30
2024-01-18T21:44:41.543Z,32.10
2024-01-18T21:47:12.349Z,31.00
2024-01-18T21:49:43.186Z,32.90
2024-01-18T21:52:14.104Z,35.20
2024-01-18T21:54:46.279Z,35.60
2024-01-18T21:57:19.635Z,33.20
2024-01-18T21:59:51.914Z,32.00
2024-01-18T22:02:22.698Z,37.20
2024-01-18T22:04:53.204Z,37.70
2024-01-18T22:07:23.757Z,35.70
2024-01-18T22:09:54.284Z,38.80
2024-01-18T22:12:24.846Z,39.60
2024-01-18T22:14:55.397Z,44.80
2024-01-18T22:17:26.017Z,33.90
2024-01-18T22:20:01.938Z,40.00
2024-01-18T22:22:36.007Z,38.50
2024-01-18T22:25:07.466Z,37.40
2024-01-18T22:27:37.931Z,35.10
2024-01-18T22:30:11.257Z,39.00
2024-01-18T22:32:41.828Z,33.60
2024-01-18T22:35:12.733Z,42.30
2024-01-18T22:37:43.416Z,36.30
2024-01-18T22:40:14.832Z,35.10
2024-01-18T22:42:45.409Z,30.80
2024-01-18T22:45:16.371Z,33.80
2024-01-18T22:47:46.913Z,34.90
2024-01-18T22:50:17.635Z,34.50
2024-01-18T22:52:48.298Z,30.50
2024-01-18T22:55:18.865Z,29.30
2024-01-18T22:57:49.410Z,27.20
2024-01-18T23:00:20.471Z,25.80
2024-01-18T23:02:50.955Z,31.40
2024-01-18T23:05:21.703Z,22.00
2024-01-18T23:07:52.306Z,32.90
2024-01-18T23:10:22.979Z,25.80
2024-01-18T23:12:53.493Z,25.00
2024-01-18T23:15:23.976Z,28.40
2024-01-18T23:17:54.499Z,27.60
2024-01-18T23:20:25.045Z,22.50
2024-01-18T23:22:55.563Z,24.80
2024-01-18T23:25:26.045Z,25.60
2024-01-18T23:27:56.582Z,28.60
2024-01-18T23:30:27.170Z,23.70
2024-01-18T23:32:57.699Z,23.40
2024-01-18T23:35:28.230Z,26.70
2024-01-18T23:37:58.751Z,21.40
2024-01-18T23:40:29.287Z,23.50
2024-01-18T23:42:59.747Z,19.90
2024-01-18T23:45:30.636Z,22.00
2024-01-18T23:48:01.275Z,20.90
2024-01-18T23:50:31.969Z,21.50
2024-01-18T23:53:02.544Z,20.50
2024-01-18T23:55:33.412Z,21.60
2024-01-18T23:58:03.922Z,21.40
